sensor_id;sensor_type;location;lat;lon;timestamp;P1;durP1;ratioP1;P2;durP2;ratioP2
757;SDS011;363;48.764;9.172;2022-11-20T00:02:21;5.37;;;3.70;;
757;SDS011;363;48.764;9.172;2022-11-20T00:04:47;4.13;;;3.73;;
757;SDS011;363;48.764;9.172;2022-11-20T00:07:12;4.60;;;4.20;;
757;SDS011;363;48.764;9.172;2022-11-20T00:09:38;5.70;;;4.93;;
757;SDS011;363;48.764;9.172;2022-11-20T00:12:04;4.57;;;3.97;;
757;SDS011;363;48.764;9.172;2022-11-20T00:14:29;4.80;;;4.40;;
757;SDS011;363;48.764;9.172;2022-11-20T00:16:55;4.60;;;4.20;;
757;SDS011;363;48.764;9.172;2022-11-20T00:19:20;4.97;;;4.47;;
757;SDS011;363;48.764;9.172;2022-11-20T00:21:46;6.13;;;5.27;;
757;SDS011;363;48.764;9.172;2022-11-20T00:24:12;5.30;;;4.40;;
757;SDS011;363;48.764;9.172;2022-11-20T00:26:37;6.17;;;4.70;;
757;SDS011;363;48.764;9.172;2022-11-20T00:29:03;6.40;;;5.10;;
757;SDS011;363;48.764;9.172;2022-11-20T00:31:29;5.30;;;4.80;;
757;SDS011;363;48.764;9.172;2022-11-20T00:33:55;4.50;;;4.10;;
757;SDS011;363;48.764;9.172;2022-11-20T00:36:25;4.70;;;4.20;;
757;SDS011;363;48.764;9.172;2022-11-20T00:38:52;5.65;;;4.30;;
757;SDS011;363;48.764;9.172;2022-11-20T00:41:22;4.65;;;4.25;;
757;SDS011;363;48.764;9.172;2022-11-20T00:43:49;5.43;;;4.75;;
757;SDS011;363;48.764;9.172;2022-11-20T00:46:17;5.43;;;4.60;;
757;SDS011;363;48.764;9.172;2022-11-20T00:48:44;5.97;;;4.50;;
757;SDS011;363;48.764;9.172;2022-11-20T00:51:11;5.10;;;4.60;;
757;SDS011;363;48.764;9.172;2022-11-20T00:53:41;4.65;;;4.25;;
757;SDS011;363;48.764;9.172;2022-11-20T00:56:09;5.57;;;5.00;;
757;SDS011;363;48.764;9.172;2022-11-20T00:58:37;4.38;;;3.97;;
757;SDS011;363;48.764;9.172;2022-11-20T01:03:33;4.00;;;3.60;;
757;SDS011;363;48.764;9.172;2022-11-20T01:06:04;5.03;;;4.53;;
757;SDS011;363;48.764;9.172;2022-11-20T01:08:32;5.35;;;3.85;;
757;SDS011;363;48.764;9.172;2022-11-20T01:11:00;4.40;;;3.40;;
757;SDS011;363;48.764;9.172;2022-11-20T01:13:27;3.92;;;3.60;;
757;SDS011;363;48.764;9.172;2022-11-20T01:16:13;4.03;;;3.40;;
757;SDS011;363;48.764;9.172;2022-11-20T01:18:41;4.00;;;3.53;;
757;SDS011;363;48.764;9.172;2022-11-20T01:21:12;3.58;;;3.28;;
757;SDS011;363;48.764;9.172;2022-11-20T01:23:40;3.08;;;2.78;;
757;SDS011;363;48.764;9.172;2022-11-20T01:26:11;5.75;;;3.08;;
757;SDS011;363;48.764;9.172;2022-11-20T01:28:39;3.25;;;2.90;;
757;SDS011;363;48.764;9.172;2022-11-20T01:31:19;4.22;;;3.40;;
757;SDS011;363;48.764;9.172;2022-11-20T01:33:52;3.55;;;2.90;;
757;SDS011;363;48.764;9.172;2022-11-20T01:36:20;3.35;;;3.08;;
757;SDS011;363;48.764;9.172;2022-11-20T01:38:47;4.03;;;3.20;;
757;SDS011;363;48.764;9.172;2022-11-20T01:41:16;4.40;;;3.30;;
757;SDS011;363;48.764;9.172;2022-11-20T01:44:00;3.45;;;3.15;;
757;SDS011;363;48.764;9.172;2022-11-20T01:46:27;3.20;;;2.90;;
757;SDS011;363;48.764;9.172;2022-11-20T01:54:05;3.88;;;3.30;;
757;SDS011;363;48.764;9.172;2022-11-20T01:56:35;3.13;;;2.80;;
757;SDS011;363;48.764;9.172;2022-11-20T01:59:05;3.28;;;2.97;;
757;SDS011;363;48.764;9.172;2022-11-20T02:01:33;3.50;;;3.20;;
757;SDS011;363;48.764;9.172;2022-11-20T02:03:59;3.33;;;3.03;;
757;SDS011;363;48.764;9.172;2022-11-20T02:06:27;4.13;;;3.10;;
757;SDS011;363;48.764;9.172;2022-11-20T02:08:56;3.50;;;3.20;;
757;SDS011;363;48.764;9.172;2022-11-20T02:11:22;3.30;;;3.00;;
757;SDS011;363;48.764;9.172;2022-11-20T02:13:48;3.37;;;3.07;;
757;SDS011;363;48.764;9.172;2022-11-20T02:19:30;3.55;;;3.25;;
757;SDS011;363;48.764;9.172;2022-11-20T02:22:07;5.45;;;2.80;;
757;SDS011;363;48.764;9.172;2022-11-20T02:24:46;3.45;;;3.15;;
757;SDS011;363;48.764;9.172;2022-11-20T02:27:14;3.10;;;2.90;;
757;SDS011;363;48.764;9.172;2022-11-20T02:29:51;3.20;;;2.90;;
757;SDS011;363;48.764;9.172;2022-11-20T02:35:09;3.45;;;3.15;;
757;SDS011;363;48.764;9.172;2022-11-20T02:37:45;2.95;;;2.75;;
757;SDS011;363;48.764;9.172;2022-11-20T02:40:13;4.10;;;3.30;;
757;SDS011;363;48.764;9.172;2022-11-20T02:42:39;3.13;;;2.83;;
757;SDS011;363;48.764;9.172;2022-11-20T02:45:05;4.17;;;3.77;;
757;SDS011;363;48.764;9.172;2022-11-20T02:47:32;3.95;;;3.05;;
757;SDS011;363;48.764;9.172;2022-11-20T02:49:58;4.03;;;2.90;;
757;SDS011;363;48.764;9.172;2022-11-20T02:52:25;3.60;;;3.30;;
757;SDS011;363;48.764;9.172;2022-11-20T02:54:51;3.80;;;2.78;;
757;SDS011;363;48.764;9.172;2022-11-20T02:57:17;4.25;;;3.70;;
757;SDS011;363;48.764;9.172;2022-11-20T02:59:42;3.07;;;2.87;;
757;SDS011;363;48.764;9.172;2022-11-20T03:02:08;3.70;;;3.40;;
757;SDS011;363;48.764;9.172;2022-11-20T03:04:34;3.50;;;3.20;;
757;SDS011;363;48.764;9.172;2022-11-20T03:06:59;7.30;;;3.03;;
757;SDS011;363;48.764;9.172;2022-11-20T03:09:25;3.30;;;3.00;;
757;SDS011;363;48.764;9.172;2022-11-20T03:11:51;4.20;;;3.47;;
757;SDS011;363;48.764;9.172;2022-11-20T03:14:17;3.10;;;2.80;;
757;SDS011;363;48.764;9.172;2022-11-20T03:16:42;4.30;;;3.90;;
757;SDS011;363;48.764;9.172;2022-11-20T03:19:08;3.57;;;3.27;;
757;SDS011;363;48.764;9.172;2022-11-20T03:21:34;3.77;;;3.47;;
757;SDS011;363;48.764;9.172;2022-11-20T03:24:00;3.53;;;3.22;;
757;SDS011;363;48.764;9.172;2022-11-20T03:26:27;3.30;;;3.00;;
757;SDS011;363;48.764;9.172;2022-11-20T03:28:56;4.85;;;3.75;;
757;SDS011;363;48.764;9.172;2022-11-20T03:31:34;4.10;;;3.38;;
757;SDS011;363;48.764;9.172;2022-11-20T03:34:05;4.28;;;3.47;;
757;SDS011;363;48.764;9.172;2022-11-20T03:36:33;3.63;;;3.25;;
757;SDS011;363;48.764;9.172;2022-11-20T03:38:59;4.03;;;3.53;;
757;SDS011;363;48.764;9.172;2022-11-20T03:41:26;4.77;;;4.33;;
757;SDS011;363;48.764;9.172;2022-11-20T03:43:54;4.97;;;3.72;;
757;SDS011;363;48.764;9.172;2022-11-20T03:46:21;4.30;;;3.40;;
757;SDS011;363;48.764;9.172;2022-11-20T03:48:48;4.07;;;3.67;;
757;SDS011;363;48.764;9.172;2022-11-20T03:53:41;4.70;;;3.85;;
757;SDS011;363;48.764;9.172;2022-11-20T03:56:09;4.65;;;3.55;;
757;SDS011;363;48.764;9.172;2022-11-20T03:58:36;3.88;;;3.47;;
757;SDS011;363;48.764;9.172;2022-11-20T04:01:09;4.15;;;3.45;;
757;SDS011;363;48.764;9.172;2022-11-20T04:03:37;4.57;;;3.35;;
757;SDS011;363;48.764;9.172;2022-11-20T04:08:32;4.50;;;4.10;;
757;SDS011;363;48.764;9.172;2022-11-20T04:11:12;4.50;;;3.67;;
757;SDS011;363;48.764;9.172;2022-11-20T04:13:39;3.58;;;3.17;;
757;SDS011;363;48.764;9.172;2022-11-20T04:16:06;3.83;;;3.50;;
757;SDS011;363;48.764;9.172;2022-11-20T04:18:33;5.35;;;3.35;;
757;SDS011;363;48.764;9.172;2022-11-20T04:20:58;3.90;;;3.57;;
757;SDS011;363;48.764;9.172;2022-11-20T04:23:25;3.83;;;3.40;;
757;SDS011;363;48.764;9.172;2022-11-20T04:25:51;3.65;;;3.17;;
757;SDS011;363;48.764;9.172;2022-11-20T04:28:17;5.90;;;3.97;;
757;SDS011;363;48.764;9.172;2022-11-20T04:30:42;14.73;;;11.17;;
757;SDS011;363;48.764;9.172;2022-11-20T04:33:08;4.07;;;3.70;;
757;SDS011;363;48.764;9.172;2022-11-20T04:35:34;4.00;;;3.70;;
757;SDS011;363;48.764;9.172;2022-11-20T04:38:00;3.95;;;3.63;;
757;SDS011;363;48.764;9.172;2022-11-20T04:40:29;4.30;;;3.90;;
757;SDS011;363;48.764;9.172;2022-11-20T04:42:55;4.20;;;3.80;;
757;SDS011;363;48.764;9.172;2022-11-20T04:45:24;4.43;;;4.03;;
757;SDS011;363;48.764;9.172;2022-11-20T04:47:49;5.03;;;4.20;;
757;SDS011;363;48.764;9.172;2022-11-20T04:50:15;4.30;;;3.67;;
757;SDS011;363;48.764;9.172;2022-11-20T04:52:40;5.10;;;4.20;;
757;SDS011;363;48.764;9.172;2022-11-20T04:55:06;6.20;;;3.80;;
757;SDS011;363;48.764;9.172;2022-11-20T04:57:32;4.43;;;4.00;;
757;SDS011;363;48.764;9.172;2022-11-20T04:59:58;3.50;;;3.27;;
757;SDS011;363;48.764;9.172;2022-11-20T05:02:23;3.43;;;3.13;;
757;SDS011;363;48.764;9.172;2022-11-20T05:04:49;5.13;;;4.00;;
757;SDS011;363;48.764;9.172;2022-11-20T05:07:14;4.17;;;3.77;;
757;SDS011;363;48.764;9.172;2022-11-20T05:09:40;4.20;;;3.77;;
757;SDS011;363;48.764;9.172;2022-11-20T05:12:07;4.10;;;3.40;;
757;SDS011;363;48.764;9.172;2022-11-20T05:14:33;3.67;;;3.33;;
757;SDS011;363;48.764;9.172;2022-11-20T05:16:59;5.47;;;3.72;;
757;SDS011;363;48.764;9.172;2022-11-20T05:19:25;3.65;;;3.35;;
757;SDS011;363;48.764;9.172;2022-11-20T05:21:50;4.27;;;3.07;;
757;SDS011;363;48.764;9.172;2022-11-20T05:24:16;3.90;;;3.60;;
757;SDS011;363;48.764;9.172;2022-11-20T05:26:42;3.73;;;3.37;;
757;SDS011;363;48.764;9.172;2022-11-20T05:29:09;3.70;;;3.37;;
757;SDS011;363;48.764;9.172;2022-11-20T05:31:38;3.60;;;3.30;;
757;SDS011;363;48.764;9.172;2022-11-20T05:34:05;3.22;;;3.03;;
757;SDS011;363;48.764;9.172;2022-11-20T05:36:31;4.00;;;3.70;;
757;SDS011;363;48.764;9.172;2022-11-20T05:38:58;3.78;;;3.15;;
757;SDS011;363;48.764;9.172;2022-11-20T05:41:23;4.13;;;3.73;;
757;SDS011;363;48.764;9.172;2022-11-20T05:43:49;3.43;;;3.13;;
757;SDS011;363;48.764;9.172;2022-11-20T05:46:16;3.65;;;3.10;;
757;SDS011;363;48.764;9.172;2022-11-20T05:48:44;3.50;;;3.20;;
757;SDS011;363;48.764;9.172;2022-11-20T05:51:11;3.70;;;3.40;;
757;SDS011;363;48.764;9.172;2022-11-20T05:53:39;3.88;;;3.28;;
757;SDS011;363;48.764;9.172;2022-11-20T05:56:09;3.30;;;2.97;;
757;SDS011;363;48.764;9.172;2022-11-20T05:58:36;3.60;;;3.30;;
757;SDS011;363;48.764;9.172;2022-11-20T06:01:07;3.25;;;3.05;;
757;SDS011;363;48.764;9.172;2022-11-20T06:03:32;3.30;;;2.95;;
757;SDS011;363;48.764;9.172;2022-11-20T06:05:59;3.30;;;3.00;;
757;SDS011;363;48.764;9.172;2022-11-20T06:08:25;3.30;;;3.00;;
757;SDS011;363;48.764;9.172;2022-11-20T06:10:50;3.70;;;3.00;;
757;SDS011;363;48.764;9.172;2022-11-20T06:13:16;3.10;;;2.80;;
757;SDS011;363;48.764;9.172;2022-11-20T06:15:42;3.17;;;2.87;;
757;SDS011;363;48.764;9.172;2022-11-20T06:18:14;3.08;;;2.78;;
757;SDS011;363;48.764;9.172;2022-11-20T06:20:39;3.80;;;3.50;;
757;SDS011;363;48.764;9.172;2022-11-20T06:23:05;4.23;;;3.83;;
757;SDS011;363;48.764;9.172;2022-11-20T06:25:31;7.50;;;5.80;;
757;SDS011;363;48.764;9.172;2022-11-20T06:27:56;5.40;;;4.90;;
757;SDS011;363;48.764;9.172;2022-11-20T06:30:22;3.60;;;3.30;;
757;SDS011;363;48.764;9.172;2022-11-20T06:32:48;4.17;;;3.13;;
757;SDS011;363;48.764;9.172;2022-11-20T06:35:13;2.90;;;2.70;;
757;SDS011;363;48.764;9.172;2022-11-20T06:37:39;2.47;;;2.27;;
757;SDS011;363;48.764;9.172;2022-11-20T06:40:05;2.60;;;2.40;;
757;SDS011;363;48.764;9.172;2022-11-20T06:42:32;2.92;;;2.72;;
757;SDS011;363;48.764;9.172;2022-11-20T06:44:57;2.30;;;2.10;;
757;SDS011;363;48.764;9.172;2022-11-20T06:47:23;2.50;;;2.30;;
757;SDS011;363;48.764;9.172;2022-11-20T06:49:48;2.53;;;2.30;;
757;SDS011;363;48.764;9.172;2022-11-20T06:52:14;3.10;;;2.80;;
757;SDS011;363;48.764;9.172;2022-11-20T06:54:40;3.17;;;2.43;;
757;SDS011;363;48.764;9.172;2022-11-20T06:57:05;2.30;;;2.10;;
757;SDS011;363;48.764;9.172;2022-11-20T06:59:31;2.70;;;2.30;;
757;SDS011;363;48.764;9.172;2022-11-20T07:01:56;3.13;;;2.50;;
757;SDS011;363;48.764;9.172;2022-11-20T07:04:22;2.47;;;2.23;;
757;SDS011;363;48.764;9.172;2022-11-20T07:06:48;2.70;;;2.50;;
757;SDS011;363;48.764;9.172;2022-11-20T07:09:14;2.50;;;2.20;;
757;SDS011;363;48.764;9.172;2022-11-20T07:11:39;2.53;;;2.10;;
757;SDS011;363;48.764;9.172;2022-11-20T07:14:05;2.70;;;2.47;;
757;SDS011;363;48.764;9.172;2022-11-20T07:16:32;2.97;;;2.50;;
757;SDS011;363;48.764;9.172;2022-11-20T07:18:57;2.23;;;2.00;;
757;SDS011;363;48.764;9.172;2022-11-20T07:21:23;3.73;;;2.13;;
757;SDS011;363;48.764;9.172;2022-11-20T07:23:49;2.67;;;2.47;;
757;SDS011;363;48.764;9.172;2022-11-20T07:26:14;2.50;;;2.30;;
757;SDS011;363;48.764;9.172;2022-11-20T07:28:43;2.37;;;2.17;;
757;SDS011;363;48.764;9.172;2022-11-20T07:31:10;2.10;;;1.95;;
757;SDS011;363;48.764;9.172;2022-11-20T07:33:37;2.58;;;2.38;;
757;SDS011;363;48.764;9.172;2022-11-20T07:36:02;2.60;;;2.40;;
757;SDS011;363;48.764;9.172;2022-11-20T07:38:28;2.50;;;2.30;;
757;SDS011;363;48.764;9.172;2022-11-20T07:40:55;2.53;;;2.33;;
757;SDS011;363;48.764;9.172;2022-11-20T07:43:22;2.20;;;2.00;;
757;SDS011;363;48.764;9.172;2022-11-20T07:45:48;2.10;;;2.00;;
757;SDS011;363;48.764;9.172;2022-11-20T07:48:14;1.73;;;1.63;;
757;SDS011;363;48.764;9.172;2022-11-20T07:50:39;2.20;;;2.00;;
757;SDS011;363;48.764;9.172;2022-11-20T07:53:05;2.00;;;1.80;;
757;SDS011;363;48.764;9.172;2022-11-20T07:55:31;2.40;;;2.20;;
757;SDS011;363;48.764;9.172;2022-11-20T07:57:57;2.33;;;2.13;;
757;SDS011;363;48.764;9.172;2022-11-20T08:00:23;3.88;;;2.20;;
757;SDS011;363;48.764;9.172;2022-11-20T08:02:50;1.95;;;1.80;;
757;SDS011;363;48.764;9.172;2022-11-20T08:05:16;1.90;;;1.80;;
757;SDS011;363;48.764;9.172;2022-11-20T08:07:42;3.17;;;2.47;;
757;SDS011;363;48.764;9.172;2022-11-20T08:10:10;2.53;;;2.33;;
757;SDS011;363;48.764;9.172;2022-11-20T08:12:47;3.15;;;2.00;;
757;SDS011;363;48.764;9.172;2022-11-20T08:15:33;2.33;;;2.13;;
757;SDS011;363;48.764;9.172;2022-11-20T08:17:59;1.90;;;1.80;;
757;SDS011;363;48.764;9.172;2022-11-20T08:20:29;2.85;;;2.30;;
757;SDS011;363;48.764;9.172;2022-11-20T08:22:58;3.60;;;3.30;;
757;SDS011;363;48.764;9.172;2022-11-20T08:25:28;2.53;;;2.00;;
757;SDS011;363;48.764;9.172;2022-11-20T08:27:56;3.10;;;2.20;;
757;SDS011;363;48.764;9.172;2022-11-20T08:30:23;2.33;;;2.10;;
757;SDS011;363;48.764;9.172;2022-11-20T08:32:48;2.53;;;1.90;;
757;SDS011;363;48.764;9.172;2022-11-20T08:35:14;1.83;;;1.60;;
757;SDS011;363;48.764;9.172;2022-11-20T08:37:40;1.77;;;1.67;;
757;SDS011;363;48.764;9.172;2022-11-20T08:40:07;2.10;;;1.90;;
757;SDS011;363;48.764;9.172;2022-11-20T08:42:35;2.10;;;1.67;;
757;SDS011;363;48.764;9.172;2022-11-20T08:45:00;1.87;;;1.77;;
757;SDS011;363;48.764;9.172;2022-11-20T08:47:26;2.37;;;1.90;;
757;SDS011;363;48.764;9.172;2022-11-20T08:49:52;2.57;;;1.80;;
757;SDS011;363;48.764;9.172;2022-11-20T08:52:18;2.03;;;1.90;;
757;SDS011;363;48.764;9.172;2022-11-20T08:54:46;2.00;;;1.90;;
757;SDS011;363;48.764;9.172;2022-11-20T08:57:12;1.60;;;1.50;;
757;SDS011;363;48.764;9.172;2022-11-20T08:59:37;1.93;;;1.70;;
757;SDS011;363;48.764;9.172;2022-11-20T09:02:03;1.80;;;1.57;;
757;SDS011;363;48.764;9.172;2022-11-20T09:04:29;1.70;;;1.60;;
757;SDS011;363;48.764;9.172;2022-11-20T09:06:54;2.37;;;2.17;;
757;SDS011;363;48.764;9.172;2022-11-20T09:09:20;1.57;;;1.47;;
757;SDS011;363;48.764;9.172;2022-11-20T09:11:46;1.40;;;1.30;;
757;SDS011;363;48.764;9.172;2022-11-20T09:14:11;1.60;;;1.50;;
757;SDS011;363;48.764;9.172;2022-11-20T09:16:37;2.90;;;1.57;;
757;SDS011;363;48.764;9.172;2022-11-20T09:19:03;2.57;;;2.00;;
757;SDS011;363;48.764;9.172;2022-11-20T09:21:28;1.77;;;1.30;;
757;SDS011;363;48.764;9.172;2022-11-20T09:23:54;2.43;;;1.70;;
757;SDS011;363;48.764;9.172;2022-11-20T09:26:19;1.73;;;1.43;;
757;SDS011;363;48.764;9.172;2022-11-20T09:28:45;1.53;;;1.33;;
757;SDS011;363;48.764;9.172;2022-11-20T09:31:22;1.53;;;1.27;;
757;SDS011;363;48.764;9.172;2022-11-20T09:33:49;1.45;;;1.15;;
757;SDS011;363;48.764;9.172;2022-11-20T09:36:15;1.00;;;0.90;;
757;SDS011;363;48.764;9.172;2022-11-20T09:38:43;3.20;;;2.90;;
757;SDS011;363;48.764;9.172;2022-11-20T09:41:19;2.10;;;1.25;;
757;SDS011;363;48.764;9.172;2022-11-20T09:43:58;1.30;;;1.20;;
757;SDS011;363;48.764;9.172;2022-11-20T09:49:23;1.85;;;1.70;;
757;SDS011;363;48.764;9.172;2022-11-20T09:52:06;1.63;;;1.30;;
757;SDS011;363;48.764;9.172;2022-11-20T09:54:52;1.23;;;1.10;;
757;SDS011;363;48.764;9.172;2022-11-20T09:57:21;1.23;;;1.00;;
757;SDS011;363;48.764;9.172;2022-11-20T09:59:59;1.65;;;0.80;;
757;SDS011;363;48.764;9.172;2022-11-20T10:02:32;1.20;;;1.10;;
757;SDS011;363;48.764;9.172;2022-11-20T10:05:51;3.92;;;0.90;;
757;SDS011;363;48.764;9.172;2022-11-20T10:07:53;1.60;;;1.50;;
757;SDS011;363;48.764;9.172;2022-11-20T10:15:53;1.48;;;1.38;;
757;SDS011;363;48.764;9.172;2022-11-20T10:21:32;2.75;;;1.20;;
757;SDS011;363;48.764;9.172;2022-11-20T10:32:39;2.55;;;1.42;;
757;SDS011;363;48.764;9.172;2022-11-20T10:37:47;0.98;;;0.90;;
757;SDS011;363;48.764;9.172;2022-11-20T10:47:49;1.43;;;1.30;;
757;SDS011;363;48.764;9.172;2022-11-20T10:50:20;2.17;;;1.40;;
757;SDS011;363;48.764;9.172;2022-11-20T10:55:40;1.67;;;1.25;;
757;SDS011;363;48.764;9.172;2022-11-20T11:00:45;2.03;;;1.50;;
757;SDS011;363;48.764;9.172;2022-11-20T11:03:29;1.63;;;1.53;;
757;SDS011;363;48.764;9.172;2022-11-20T11:05:59;1.83;;;1.65;;
757;SDS011;363;48.764;9.172;2022-11-20T11:08:35;1.30;;;1.20;;
757;SDS011;363;48.764;9.172;2022-11-20T11:13:44;1.15;;;1.10;;
757;SDS011;363;48.764;9.172;2022-11-20T11:16:48;1.60;;;1.40;;
757;SDS011;363;48.764;9.172;2022-11-20T11:19:13;1.63;;;1.30;;
757;SDS011;363;48.764;9.172;2022-11-20T11:21:45;2.13;;;1.67;;
757;SDS011;363;48.764;9.172;2022-11-20T11:24:20;1.77;;;1.67;;
757;SDS011;363;48.764;9.172;2022-11-20T11:29:31;1.70;;;1.60;;
757;SDS011;363;48.764;9.172;2022-11-20T11:34:40;1.45;;;1.35;;
757;SDS011;363;48.764;9.172;2022-11-20T11:37:13;1.63;;;1.53;;
757;SDS011;363;48.764;9.172;2022-11-20T11:39:46;1.83;;;1.73;;
757;SDS011;363;48.764;9.172;2022-11-20T11:42:16;2.60;;;2.30;;
757;SDS011;363;48.764;9.172;2022-11-20T11:44:44;2.30;;;2.10;;
757;SDS011;363;48.764;9.172;2022-11-20T11:53:21;2.40;;;2.00;;
757;SDS011;363;48.764;9.172;2022-11-20T11:58:04;2.95;;;1.90;;
757;SDS011;363;48.764;9.172;2022-11-20T12:00:45;2.05;;;1.70;;
757;SDS011;363;48.764;9.172;2022-11-20T12:03:44;2.72;;;2.15;;
757;SDS011;363;48.764;9.172;2022-11-20T12:06:34;2.67;;;2.30;;
757;SDS011;363;48.764;9.172;2022-11-20T12:09:04;1.73;;;1.55;;
757;SDS011;363;48.764;9.172;2022-11-20T12:16:55;2.20;;;2.00;;
757;SDS011;363;48.764;9.172;2022-11-20T12:19:22;1.90;;;1.48;;
757;SDS011;363;48.764;9.172;2022-11-20T12:30:08;4.22;;;2.25;;
757;SDS011;363;48.764;9.172;2022-11-20T12:32:48;2.22;;;2.05;;
757;SDS011;363;48.764;9.172;2022-11-20T12:40:52;2.28;;;1.30;;
757;SDS011;363;48.764;9.172;2022-11-20T12:50:15;1.60;;;1.25;;
757;SDS011;363;48.764;9.172;2022-11-20T12:55:55;1.30;;;1.05;;
757;SDS011;363;48.764;9.172;2022-11-20T12:58:31;4.55;;;1.70;;
757;SDS011;363;48.764;9.172;2022-11-20T13:07:05;1.10;;;1.00;;
757;SDS011;363;48.764;9.172;2022-11-20T13:09:35;0.95;;;0.90;;
757;SDS011;363;48.764;9.172;2022-11-20T13:15:18;10.63;;;1.10;;
757;SDS011;363;48.764;9.172;2022-11-20T13:18:01;2.25;;;1.40;;
757;SDS011;363;48.764;9.172;2022-11-20T13:20:30;1.00;;;0.90;;
757;SDS011;363;48.764;9.172;2022-11-20T13:22:57;0.98;;;0.90;;
757;SDS011;363;48.764;9.172;2022-11-20T13:27:54;4.82;;;2.20;;
757;SDS011;363;48.764;9.172;2022-11-20T13:30:27;2.67;;;1.60;;
757;SDS011;363;48.764;9.172;2022-11-20T13:33:06;1.17;;;0.93;;
757;SDS011;363;48.764;9.172;2022-11-20T13:35:35;1.50;;;1.23;;
757;SDS011;363;48.764;9.172;2022-11-20T13:38:06;1.05;;;0.82;;
757;SDS011;363;48.764;9.172;2022-11-20T13:40:36;1.27;;;0.93;;
757;SDS011;363;48.764;9.172;2022-11-20T13:43:18;0.95;;;0.82;;
757;SDS011;363;48.764;9.172;2022-11-20T13:45:55;2.05;;;1.40;;
757;SDS011;363;48.764;9.172;2022-11-20T13:48:23;3.15;;;1.13;;
757;SDS011;363;48.764;9.172;2022-11-20T13:56:34;1.95;;;1.83;;
757;SDS011;363;48.764;9.172;2022-11-20T14:01:51;1.20;;;1.10;;
757;SDS011;363;48.764;9.172;2022-11-20T14:04:20;1.45;;;1.20;;
757;SDS011;363;48.764;9.172;2022-11-20T14:07:00;1.10;;;0.85;;
757;SDS011;363;48.764;9.172;2022-11-20T14:09:30;2.00;;;1.00;;
757;SDS011;363;48.764;9.172;2022-11-20T14:11:58;1.35;;;1.25;;
757;SDS011;363;48.764;9.172;2022-11-20T14:14:25;2.08;;;1.35;;
757;SDS011;363;48.764;9.172;2022-11-20T14:16:52;3.60;;;1.45;;
757;SDS011;363;48.764;9.172;2022-11-20T14:19:29;1.42;;;1.20;;
757;SDS011;363;48.764;9.172;2022-11-20T14:22:10;2.70;;;1.70;;
757;SDS011;363;48.764;9.172;2022-11-20T14:24:38;1.20;;;1.10;;
757;SDS011;363;48.764;9.172;2022-11-20T14:27:04;2.10;;;1.33;;
757;SDS011;363;48.764;9.172;2022-11-20T14:29:36;2.83;;;1.45;;
757;SDS011;363;48.764;9.172;2022-11-20T14:32:03;1.73;;;1.63;;
757;SDS011;363;48.764;9.172;2022-11-20T14:34:30;2.15;;;1.70;;
757;SDS011;363;48.764;9.172;2022-11-20T14:36:59;1.95;;;1.70;;
757;SDS011;363;48.764;9.172;2022-11-20T14:39:30;1.85;;;1.40;;
757;SDS011;363;48.764;9.172;2022-11-20T14:41:58;1.70;;;1.60;;
757;SDS011;363;48.764;9.172;2022-11-20T14:44:28;1.10;;;1.00;;
757;SDS011;363;48.764;9.172;2022-11-20T14:46:56;1.50;;;1.15;;
757;SDS011;363;48.764;9.172;2022-11-20T14:49:23;1.38;;;1.10;;
757;SDS011;363;48.764;9.172;2022-11-20T14:51:58;2.05;;;1.20;;
757;SDS011;363;48.764;9.172;2022-11-20T14:54:42;1.55;;;1.05;;
757;SDS011;363;48.764;9.172;2022-11-20T15:00:04;1.92;;;1.50;;
757;SDS011;363;48.764;9.172;2022-11-20T15:02:32;1.27;;;1.17;;
757;SDS011;363;48.764;9.172;2022-11-20T15:04:58;1.45;;;1.30;;
757;SDS011;363;48.764;9.172;2022-11-20T15:07:29;1.55;;;1.42;;
757;SDS011;363;48.764;9.172;2022-11-20T15:10:05;2.40;;;2.10;;
757;SDS011;363;48.764;9.172;2022-11-20T15:12:32;1.52;;;1.27;;
757;SDS011;363;48.764;9.172;2022-11-20T15:15:00;2.20;;;1.50;;
757;SDS011;363;48.764;9.172;2022-11-20T15:17:27;1.70;;;1.42;;
757;SDS011;363;48.764;9.172;2022-11-20T15:19:54;1.75;;;1.63;;
757;SDS011;363;48.764;9.172;2022-11-20T15:22:20;2.03;;;1.45;;
757;SDS011;363;48.764;9.172;2022-11-20T15:24:46;2.20;;;2.00;;
757;SDS011;363;48.764;9.172;2022-11-20T15:27:11;1.70;;;1.60;;
757;SDS011;363;48.764;9.172;2022-11-20T15:29:37;3.83;;;1.93;;
757;SDS011;363;48.764;9.172;2022-11-20T15:32:02;2.50;;;1.77;;
757;SDS011;363;48.764;9.172;2022-11-20T15:34:28;1.60;;;1.50;;
757;SDS011;363;48.764;9.172;2022-11-20T15:36:54;2.40;;;1.57;;
757;SDS011;363;48.764;9.172;2022-11-20T15:39:20;2.10;;;1.57;;
757;SDS011;363;48.764;9.172;2022-11-20T15:41:46;1.60;;;1.50;;
757;SDS011;363;48.764;9.172;2022-11-20T15:44:12;2.63;;;1.90;;
757;SDS011;363;48.764;9.172;2022-11-20T15:46:38;1.90;;;1.67;;
757;SDS011;363;48.764;9.172;2022-11-20T15:49:10;2.85;;;2.53;;
757;SDS011;363;48.764;9.172;2022-11-20T15:51:43;1.80;;;1.70;;
757;SDS011;363;48.764;9.172;2022-11-20T15:56:38;3.15;;;2.85;;
757;SDS011;363;48.764;9.172;2022-11-20T15:59:03;5.27;;;4.77;;
757;SDS011;363;48.764;9.172;2022-11-20T16:01:29;2.80;;;2.60;;
757;SDS011;363;48.764;9.172;2022-11-20T16:03:55;2.92;;;1.92;;
757;SDS011;363;48.764;9.172;2022-11-20T16:06:20;1.83;;;1.73;;
757;SDS011;363;48.764;9.172;2022-11-20T16:08:46;2.57;;;1.73;;
757;SDS011;363;48.764;9.172;2022-11-20T16:11:12;2.30;;;2.00;;
757;SDS011;363;48.764;9.172;2022-11-20T16:13:39;1.92;;;1.83;;
757;SDS011;363;48.764;9.172;2022-11-20T16:16:27;2.78;;;2.20;;
757;SDS011;363;48.764;9.172;2022-11-20T16:18:56;2.30;;;2.00;;
757;SDS011;363;48.764;9.172;2022-11-20T16:21:21;2.13;;;1.98;;
757;SDS011;363;48.764;9.172;2022-11-20T16:23:59;2.05;;;1.85;;
757;SDS011;363;48.764;9.172;2022-11-20T16:26:26;1.80;;;1.70;;
757;SDS011;363;48.764;9.172;2022-11-20T16:28:52;2.05;;;1.85;;
757;SDS011;363;48.764;9.172;2022-11-20T16:31:18;2.20;;;2.10;;
757;SDS011;363;48.764;9.172;2022-11-20T16:33:51;2.58;;;2.38;;
757;SDS011;363;48.764;9.172;2022-11-20T16:36:18;2.35;;;2.15;;
757;SDS011;363;48.764;9.172;2022-11-20T16:38:44;2.50;;;2.30;;
757;SDS011;363;48.764;9.172;2022-11-20T16:41:10;2.60;;;2.40;;
757;SDS011;363;48.764;9.172;2022-11-20T16:43:48;4.35;;;2.72;;
757;SDS011;363;48.764;9.172;2022-11-20T16:46:14;2.75;;;2.30;;
757;SDS011;363;48.764;9.172;2022-11-20T16:48:41;2.60;;;2.40;;
757;SDS011;363;48.764;9.172;2022-11-20T16:51:10;2.50;;;2.30;;
757;SDS011;363;48.764;9.172;2022-11-20T16:53:37;3.75;;;2.60;;
757;SDS011;363;48.764;9.172;2022-11-20T16:56:16;2.22;;;2.03;;
757;SDS011;363;48.764;9.172;2022-11-20T16:58:44;3.78;;;2.30;;
757;SDS011;363;48.764;9.172;2022-11-20T17:01:12;3.22;;;2.50;;
757;SDS011;363;48.764;9.172;2022-11-20T17:03:39;2.60;;;2.13;;
757;SDS011;363;48.764;9.172;2022-11-20T17:06:16;2.58;;;2.05;;
757;SDS011;363;48.764;9.172;2022-11-20T17:08:43;3.55;;;2.20;;
757;SDS011;363;48.764;9.172;2022-11-20T17:11:10;3.75;;;2.65;;
757;SDS011;363;48.764;9.172;2022-11-20T17:13:38;2.70;;;2.30;;
757;SDS011;363;48.764;9.172;2022-11-20T17:16:05;2.30;;;2.10;;
757;SDS011;363;48.764;9.172;2022-11-20T17:18:33;3.58;;;2.05;;
757;SDS011;363;48.764;9.172;2022-11-20T17:20:59;3.27;;;2.20;;
757;SDS011;363;48.764;9.172;2022-11-20T17:23:29;2.17;;;2.05;;
757;SDS011;363;48.764;9.172;2022-11-20T17:26:03;2.72;;;2.20;;
757;SDS011;363;48.764;9.172;2022-11-20T17:28:30;2.55;;;2.35;;
757;SDS011;363;48.764;9.172;2022-11-20T17:31:06;2.20;;;2.03;;
757;SDS011;363;48.764;9.172;2022-11-20T17:33:42;2.42;;;2.22;;
757;SDS011;363;48.764;9.172;2022-11-20T17:36:10;2.00;;;1.80;;
757;SDS011;363;48.764;9.172;2022-11-20T17:38:37;3.22;;;2.53;;
757;SDS011;363;48.764;9.172;2022-11-20T17:43:30;3.75;;;1.90;;
757;SDS011;363;48.764;9.172;2022-11-20T17:45:56;2.40;;;2.20;;
757;SDS011;363;48.764;9.172;2022-11-20T17:48:21;2.92;;;2.45;;
757;SDS011;363;48.764;9.172;2022-11-20T17:50:47;2.97;;;2.47;;
757;SDS011;363;48.764;9.172;2022-11-20T17:53:13;3.10;;;2.17;;
757;SDS011;363;48.764;9.172;2022-11-20T17:55:38;2.30;;;2.10;;
757;SDS011;363;48.764;9.172;2022-11-20T17:58:22;2.20;;;1.98;;
757;SDS011;363;48.764;9.172;2022-11-20T18:00:51;3.92;;;2.45;;
757;SDS011;363;48.764;9.172;2022-11-20T18:03:17;3.33;;;2.43;;